createdAt,value
2018-02-23T15:46:25.698Z,64.70
2018-02-23T15:48:19.473Z,67.87
2018-02-23T15:49:23.996Z,63.60
2018-02-23T15:50:37.022Z,62.53
2018-02-23T15:51:59.774Z,61.23
2018-02-23T15:53:18.961Z,60.63
2018-02-23T15:54:28.670Z,61.47
2018-02-23T15:55:33.763Z,60.87
2018-02-23T15:56:38.181Z,59.17
2018-02-23T15:57:54.996Z,62.07
2018-02-23T15:59:10.993Z,59.77
2018-02-23T16:00:34.851Z,62.53
2018-02-23T16:03:13.631Z,59.27
2018-02-23T16:04:17.974Z,59.20
2018-02-23T16:05:23.085Z,59.17
2018-02-23T16:06:27.446Z,58.47
2018-02-23T16:07:34.593Z,62.23
2018-02-23T16:08:41.811Z,62.00
2018-02-23T16:09:46.842Z,60.07
2018-02-23T16:10:58.976Z,60.80
2018-02-23T16:12:04.318Z,59.43
2018-02-23T16:13:11.231Z,60.13
2018-02-23T16:14:15.653Z,59.03
2018-02-23T16:15:19.969Z,64.30
2018-02-23T16:16:24.391Z,67.90
2018-02-23T16:17:28.606Z,63.70
2018-02-23T16:18:32.922Z,63.57
2018-02-23T16:19:37.180Z,72.80
2018-02-23T16:20:41.364Z,69.77
2018-02-23T16:21:45.721Z,74.43
2018-02-23T16:22:49.895Z,79.87
2018-02-23T16:23:54.114Z,80.33
2018-02-23T16:24:58.532Z,88.83
2018-02-23T16:26:11.190Z,87.53
2018-02-23T16:27:24.097Z,81.13
2018-02-23T16:28:33.135Z,85.17
2018-02-23T16:29:37.460Z,88.93
2018-02-23T16:30:41.728Z,81.13
2018-02-23T16:31:46.005Z,84.17
2018-02-23T16:32:51.143Z,85.03
2018-02-23T16:33:56.178Z,85.53
2018-02-23T16:35:00.495Z,88.40
2018-02-23T16:36:04.630Z,86.60
2018-02-23T16:37:08.942Z,85.67
2018-02-23T16:38:13.156Z,85.73
2018-02-23T16:39:17.387Z,88.87
2018-02-23T16:40:58.160Z,88.10
2018-02-23T16:42:02.477Z,86.47
2018-02-23T16:43:06.798Z,87.00
2018-02-23T16:44:11.117Z,88.60
2018-02-23T16:45:15.376Z,87.27
2018-02-23T16:46:20.372Z,96.67
2018-02-23T16:47:24.830Z,104.03
2018-02-23T16:48:28.945Z,92.13
2018-02-23T16:49:33.219Z,100.03
2018-02-23T16:50:37.541Z,93.87
2018-02-23T16:51:42.685Z,91.73
2018-02-23T16:52:47.007Z,89.32
2018-02-23T16:53:51.213Z,95.63
2018-02-23T16:54:55.432Z,89.83
2018-02-23T16:56:00.469Z,91.57
2018-02-23T16:57:04.683Z,89.17
2018-02-23T16:58:09.105Z,93.10
2018-02-23T16:59:14.141Z,91.07
2018-02-23T17:00:19.241Z,90.30
2018-02-23T17:01:23.493Z,89.90
2018-02-23T17:02:28.529Z,89.10
2018-02-23T17:03:33.053Z,89.77
2018-02-23T17:04:38.085Z,90.93
2018-02-23T17:05:42.409Z,89.50
2018-02-23T17:06:46.727Z,89.10
2018-02-23T17:07:51.863Z,87.23
2018-02-23T17:08:56.083Z,90.07
2018-02-23T17:10:01.114Z,87.23
2018-02-23T17:11:05.434Z,88.87
2018-02-23T17:12:09.857Z,85.00
2018-02-23T17:13:14.994Z,84.50
2018-02-23T17:14:19.214Z,85.70
2018-02-23T17:15:23.530Z,85.07
2018-02-23T17:16:27.846Z,85.27
2018-02-23T17:17:32.881Z,90.30
2018-02-23T17:18:37.304Z,86.73
2018-02-23T17:19:41.523Z,93.57
2018-02-23T17:20:45.738Z,89.97
2018-02-23T17:21:50.058Z,85.03
2018-02-23T17:22:54.380Z,88.57
